sensor_id;sensor_type;location;lat;lon;timestamp;pressure;altitude;pressure_sealevel;temperature;humidity
10618;BME280;5356;43.526;26.534;2023-03-04T18:50:00;98718.84;;;8.75;100.00
10618;BME280;5356;43.526;26.534;2023-03-04T18:52:27;98714.94;;;8.77;100.00
10618;BME280;5356;43.526;26.534;2023-03-04T18:54:52;98724.06;;;8.82;100.00
10618;BME280;5356;43.526;26.534;2023-03-04T18:57:18;98717.00;;;8.75;100.00
10618;BME280;5356;43.526;26.534;2023-03-04T18:59:49;98722.84;;;8.59;100.00
10618;BME280;5356;43.526;26.534;2023-03-04T19:02:27;98727.94;;;8.36;100.00
10618;BME280;5356;43.526;26.534;2023-03-04T19:04:55;98730.25;;;8.25;100.00
10618;BME280;5356;43.526;26.534;2023-03-04T19:07:22;98728.19;;;8.27;100.00
10618;BME280;5356;43.526;26.534;2023-03-04T19:09:48;98728.63;;;8.24;100.00
10618;BME280;5356;43.526;26.534;2023-03-04T19:12:13;98732.47;;;8.28;100.00
10618;BME280;5356;43.526;26.534;2023-03-04T19:14:39;98731.47;;;8.29;100.00
10618;BME280;5356;43.526;26.534;2023-03-04T19:17:04;98726.56;;;8.26;100.00
10618;BME280;5356;43.526;26.534;2023-03-04T19:19:30;98731.22;;;8.31;100.00
10618;BME280;5356;43.526;26.534;2023-03-04T19:21:56;98728.19;;;8.27;100.00
10618;BME280;5356;43.526;26.534;2023-03-04T19:24:22;98728.22;;;8.21;100.00
10618;BME280;5356;43.526;26.534;2023-03-04T19:26:48;98724.56;;;8.22;100.00
10618;BME280;5356;43.526;26.534;2023-03-04T19:29:13;98723.84;;;8.08;100.00
10618;BME280;5356;43.526;26.534;2023-03-04T19:31:39;98727.97;;;8.04;100.00
10618;BME280;5356;43.526;26.534;2023-03-04T19:34:05;98726.69;;;8.06;100.00
10618;BME280;5356;43.526;26.534;2023-03-04T19:36:30;98728.13;;;8.09;100.00
10618;BME280;5356;43.526;26.534;2023-03-04T19:38:56;98727.56;;;8.00;100.00
10618;BME280;5356;43.526;26.534;2023-03-04T19:41:25;98727.13;;;8.03;100.00
10618;BME280;5356;43.526;26.534;2023-03-04T19:43:51;98729.97;;;8.08;100.00
10618;BME280;5356;43.526;26.534;2023-03-04T19:46:16;98736.03;;;8.16;100.00
10618;BME280;5356;43.526;26.534;2023-03-04T19:48:42;98729.16;;;8.08;100.00
10618;BME280;5356;43.526;26.534;2023-03-04T19:51:13;98732.00;;;8.06;100.00
10618;BME280;5356;43.526;26.534;2023-03-04T19:53:41;98734.53;;;7.95;100.00
10618;BME280;5356;43.526;26.534;2023-03-04T19:56:07;98729.09;;;7.83;100.00
10618;BME280;5356;43.526;26.534;2023-03-04T19:58:32;98727.25;;;7.83;100.00
10618;BME280;5356;43.526;26.534;2023-03-04T20:00:58;98728.34;;;7.76;100.00
10618;BME280;5356;43.526;26.534;2023-03-04T20:03:24;98731.81;;;7.76;100.00
10618;BME280;5356;43.526;26.534;2023-03-04T20:05:50;98721.69;;;7.60;100.00
10618;BME280;5356;43.526;26.534;2023-03-04T20:08:17;98719.41;;;7.63;100.00
10618;BME280;5356;43.526;26.534;2023-03-04T20:10:42;98718.47;;;7.51;100.00
10618;BME280;5356;43.526;26.534;2023-03-04T20:13:08;98718.91;;;7.41;100.00
10618;BME280;5356;43.526;26.534;2023-03-04T20:15:34;98724.38;;;7.47;100.00
10618;BME280;5356;43.526;26.534;2023-03-04T20:18:00;98731.50;;;7.53;100.00
10618;BME280;5356;43.526;26.534;2023-03-04T20:20:27;98733.59;;;7.37;100.00
10618;BME280;5356;43.526;26.534;2023-03-04T20:22:55;98737.47;;;7.35;100.00
10618;BME280;5356;43.526;26.534;2023-03-04T20:25:21;98746.25;;;7.35;100.00
10618;BME280;5356;43.526;26.534;2023-03-04T20:27:47;98736.03;;;7.46;100.00
10618;BME280;5356;43.526;26.534;2023-03-04T20:30:13;98741.50;;;7.51;100.00
10618;BME280;5356;43.526;26.534;2023-03-04T20:32:39;98743.50;;;7.55;100.00
10618;BME280;5356;43.526;26.534;2023-03-04T20:35:05;98734.97;;;7.53;100.00
10618;BME280;5356;43.526;26.534;2023-03-04T20:37:30;98738.81;;;7.57;100.00
10618;BME280;5356;43.526;26.534;2023-03-04T20:39:56;98732.28;;;7.60;100.00
10618;BME280;5356;43.526;26.534;2023-03-04T20:42:23;98738.63;;;7.59;100.00
10618;BME280;5356;43.526;26.534;2023-03-04T20:44:48;98732.13;;;7.48;100.00
10618;BME280;5356;43.526;26.534;2023-03-04T20:47:14;98734.59;;;7.43;100.00
10618;BME280;5356;43.526;26.534;2023-03-04T20:49:39;98729.88;;;7.52;100.00
10618;BME280;5356;43.526;26.534;2023-03-04T20:52:05;98736.78;;;7.53;100.00
10618;BME280;5356;43.526;26.534;2023-03-04T20:54:35;98731.47;;;7.59;100.00
10618;BME280;5356;43.526;26.534;2023-03-04T20:57:02;98719.03;;;7.60;100.00
10618;BME280;5356;43.526;26.534;2023-03-04T20:59:31;98722.09;;;7.57;100.00
10618;BME280;5356;43.526;26.534;2023-03-04T21:01:56;98724.16;;;7.55;100.00
10618;BME280;5356;43.526;26.534;2023-03-04T21:04:23;98722.06;;;7.63;100.00
10618;BME280;5356;43.526;26.534;2023-03-04T21:06:50;98723.28;;;7.61;100.00
10618;BME280;5356;43.526;26.534;2023-03-04T21:09:18;98718.59;;;7.63;100.00
10618;BME280;5356;43.526;26.534;2023-03-04T21:11:46;98714.72;;;7.65;100.00
10618;BME280;5356;43.526;26.534;2023-03-04T21:14:19;98716.69;;;7.77;100.00
10618;BME280;5356;43.526;26.534;2023-03-04T21:16:47;98718.28;;;7.84;100.00
10618;BME280;5356;43.526;26.534;2023-03-04T21:19:17;98704.34;;;7.96;100.00
10618;BME280;5356;43.526;26.534;2023-03-04T21:21:44;98706.94;;;8.02;100.00
10618;BME280;5356;43.526;26.534;2023-03-04T21:24:13;98707.31;;;8.06;100.00
10618;BME280;5356;43.526;26.534;2023-03-04T21:26:39;98707.75;;;8.03;100.00
10618;BME280;5356;43.526;26.534;2023-03-04T21:29:05;98699.78;;;8.03;100.00
10618;BME280;5356;43.526;26.534;2023-03-04T21:31:33;98697.75;;;8.05;100.00
10618;BME280;5356;43.526;26.534;2023-03-04T21:34:01;98692.44;;;8.05;100.00
10618;BME280;5356;43.526;26.534;2023-03-04T21:36:26;98695.34;;;7.97;100.00
10618;BME280;5356;43.526;26.534;2023-03-04T21:38:53;98688.53;;;7.82;100.00
10618;BME280;5356;43.526;26.534;2023-03-04T21:41:21;98684.75;;;7.65;100.00
10618;BME280;5356;43.526;26.534;2023-03-04T21:43:47;98680.97;;;7.48;100.00
10618;BME280;5356;43.526;26.534;2023-03-04T21:46:14;98684.91;;;7.32;100.00
10618;BME280;5356;43.526;26.534;2023-03-04T21:48:41;98672.16;;;7.15;100.00
10618;BME280;5356;43.526;26.534;2023-03-04T21:51:10;98675.44;;;7.11;100.00
10618;BME280;5356;43.526;26.534;2023-03-04T21:53:38;98676.22;;;7.18;100.00
10618;BME280;5356;43.526;26.534;2023-03-04T21:56:04;98684.34;;;7.23;100.00
10618;BME280;5356;43.526;26.534;2023-03-04T21:58:30;98685.19;;;7.10;100.00
10618;BME280;5356;43.526;26.534;2023-03-04T22:00:56;98678.09;;;7.11;100.00
10618;BME280;5356;43.526;26.534;2023-03-04T22:03:23;98674.22;;;7.07;100.00
10618;BME280;5356;43.526;26.534;2023-03-04T22:05:49;98677.91;;;6.99;100.00
10618;BME280;5356;43.526;26.534;2023-03-04T22:08:16;98672.25;;;6.89;100.00
10618;BME280;5356;43.526;26.534;2023-03-04T22:10:43;98664.53;;;6.81;100.00
10618;BME280;5356;43.526;26.534;2023-03-04T22:13:10;98675.09;;;6.87;100.00
10618;BME280;5356;43.526;26.534;2023-03-04T22:15:38;98666.13;;;6.95;100.00
10618;BME280;5356;43.526;26.534;2023-03-04T22:18:07;98655.91;;;7.05;100.00
10618;BME280;5356;43.526;26.534;2023-03-04T22:20:38;98660.56;;;7.10;100.00
10618;BME280;5356;43.526;26.534;2023-03-04T22:23:04;98658.72;;;7.10;100.00
10618;BME280;5356;43.526;26.534;2023-03-04T22:25:33;98661.16;;;7.12;100.00
10618;BME280;5356;43.526;26.534;2023-03-04T22:27:59;98656.91;;;7.11;100.00
10618;BME280;5356;43.526;26.534;2023-03-04T22:30:24;98661.16;;;7.12;100.00
10618;BME280;5356;43.526;26.534;2023-03-04T22:32:50;98657.72;;;7.05;100.00
10618;BME280;5356;43.526;26.534;2023-03-04T22:35:16;98655.53;;;6.95;100.00
10618;BME280;5356;43.526;26.534;2023-03-04T22:37:43;98658.63;;;6.85;100.00
10618;BME280;5356;43.526;26.534;2023-03-04T22:40:09;98659.66;;;6.78;100.00
10618;BME280;5356;43.526;26.534;2023-03-04T22:42:42;98658.03;;;6.77;100.00
10618;BME280;5356;43.526;26.534;2023-03-04T22:45:10;98650.09;;;6.77;100.00
10618;BME280;5356;43.526;26.534;2023-03-04T22:47:37;98655.81;;;6.67;100.00
10618;BME280;5356;43.526;26.534;2023-03-04T22:50:04;98653.13;;;6.73;100.00
10618;BME280;5356;43.526;26.534;2023-03-04T22:52:30;98646.63;;;6.83;100.00
10618;BME280;5356;43.526;26.534;2023-03-04T22:54:56;98646.19;;;6.79;100.00
10618;BME280;5356;43.526;26.534;2023-03-04T22:57:21;98639.13;;;6.66;100.00
10618;BME280;5356;43.526;26.534;2023-03-04T22:59:47;98646.25;;;6.66;100.00
10618;BME280;5356;43.526;26.534;2023-03-04T23:02:13;98642.16;;;6.70;100.00
10618;BME280;5356;43.526;26.534;2023-03-04T23:04:38;98649.69;;;6.73;100.00
10618;BME280;5356;43.526;26.534;2023-03-04T23:07:04;98643.78;;;6.78;100.00
10618;BME280;5356;43.526;26.534;2023-03-04T23:09:29;98649.69;;;6.80;100.00
10618;BME280;5356;43.526;26.534;2023-03-04T23:11:54;98638.91;;;6.68;100.00
10618;BME280;5356;43.526;26.534;2023-03-04T23:14:20;98641.78;;;6.66;100.00
10618;BME280;5356;43.526;26.534;2023-03-04T23:16:45;98645.63;;;6.64;100.00
10618;BME280;5356;43.526;26.534;2023-03-04T23:19:14;98643.00;;;6.64;100.00
10618;BME280;5356;43.526;26.534;2023-03-04T23:21:40;98634.84;;;6.59;100.00
10618;BME280;5356;43.526;26.534;2023-03-04T23:24:06;98636.72;;;6.51;100.00
10618;BME280;5356;43.526;26.534;2023-03-04T23:26:37;98643.84;;;6.44;100.00
10618;BME280;5356;43.526;26.534;2023-03-04T23:29:04;98637.94;;;6.42;100.00
10618;BME280;5356;43.526;26.534;2023-03-04T23:31:31;98645.69;;;6.37;100.00
10618;BME280;5356;43.526;26.534;2023-03-04T23:33:57;98648.16;;;6.32;100.00
10618;BME280;5356;43.526;26.534;2023-03-04T23:36:28;98647.34;;;6.32;100.00
10618;BME280;5356;43.526;26.534;2023-03-04T23:38:54;98644.28;;;6.28;100.00
10618;BME280;5356;43.526;26.534;2023-03-04T23:41:26;98650.59;;;6.27;100.00
10618;BME280;5356;43.526;26.534;2023-03-04T23:43:53;98643.06;;;6.24;100.00
10618;BME280;5356;43.526;26.534;2023-03-04T23:46:20;98649.78;;;6.26;100.00
10618;BME280;5356;43.526;26.534;2023-03-04T23:48:46;98646.09;;;6.27;100.00
10618;BME280;5356;43.526;26.534;2023-03-04T23:51:13;98648.34;;;6.24;100.00
10618;BME280;5356;43.526;26.534;2023-03-04T23:53:39;98649.75;;;6.20;100.00
10618;BME280;5356;43.526;26.534;2023-03-04T23:56:20;98647.13;;;6.13;100.00
10618;BME280;5356;43.526;26.534;2023-03-04T23:58:45;98636.56;;;6.06;100.00
